sensor_id;sensor_type;location;lat;lon;timestamp;P1;durP1;ratioP1;P2;durP2;ratioP2
68010;SDS011;54794;48.348;7.878;2023-03-12T00:00:04;3.17;;;1.15;;
68010;SDS011;54794;48.348;7.878;2023-03-12T00:02:34;2.05;;;0.88;;
68010;SDS011;54794;48.348;7.878;2023-03-12T00:05:01;2.83;;;1.17;;
68010;SDS011;54794;48.348;7.878;2023-03-12T00:07:29;4.28;;;1.45;;
68010;SDS011;54794;48.348;7.878;2023-03-12T00:09:56;4.03;;;1.40;;
68010;SDS011;54794;48.348;7.878;2023-03-12T00:12:23;2.47;;;0.90;;
68010;SDS011;54794;48.348;7.878;2023-03-12T00:14:50;2.47;;;1.00;;
68010;SDS011;54794;48.348;7.878;2023-03-12T00:17:17;5.60;;;2.67;;
68010;SDS011;54794;48.348;7.878;2023-03-12T00:19:43;3.50;;;1.97;;
68010;SDS011;54794;48.348;7.878;2023-03-12T00:22:10;3.53;;;1.97;;
68010;SDS011;54794;48.348;7.878;2023-03-12T00:24:37;4.65;;;2.05;;
68010;SDS011;54794;48.348;7.878;2023-03-12T00:27:05;2.97;;;1.17;;
68010;SDS011;54794;48.348;7.878;2023-03-12T00:29:32;3.05;;;1.60;;
68010;SDS011;54794;48.348;7.878;2023-03-12T00:31:59;2.95;;;1.35;;
68010;SDS011;54794;48.348;7.878;2023-03-12T00:34:26;2.80;;;1.40;;
68010;SDS011;54794;48.348;7.878;2023-03-12T00:36:53;2.30;;;1.33;;
68010;SDS011;54794;48.348;7.878;2023-03-12T00:39:20;2.53;;;1.00;;
68010;SDS011;54794;48.348;7.878;2023-03-12T00:41:46;1.05;;;0.70;;
68010;SDS011;54794;48.348;7.878;2023-03-12T00:44:14;2.00;;;0.98;;
68010;SDS011;54794;48.348;7.878;2023-03-12T00:46:41;1.30;;;0.90;;
68010;SDS011;54794;48.348;7.878;2023-03-12T00:49:08;4.55;;;1.83;;
68010;SDS011;54794;48.348;7.878;2023-03-12T00:51:37;3.17;;;1.45;;
68010;SDS011;54794;48.348;7.878;2023-03-12T00:54:04;2.92;;;1.60;;
68010;SDS011;54794;48.348;7.878;2023-03-12T00:56:31;2.45;;;1.25;;
68010;SDS011;54794;48.348;7.878;2023-03-12T00:58:58;2.50;;;1.00;;
68010;SDS011;54794;48.348;7.878;2023-03-12T01:01:25;3.10;;;1.38;;
68010;SDS011;54794;48.348;7.878;2023-03-12T01:03:52;2.15;;;1.00;;
68010;SDS011;54794;48.348;7.878;2023-03-12T01:06:20;1.52;;;0.60;;
68010;SDS011;54794;48.348;7.878;2023-03-12T01:08:47;1.92;;;0.82;;
68010;SDS011;54794;48.348;7.878;2023-03-12T01:11:15;1.40;;;0.75;;
68010;SDS011;54794;48.348;7.878;2023-03-12T01:13:45;1.80;;;0.80;;
68010;SDS011;54794;48.348;7.878;2023-03-12T01:16:13;1.17;;;0.70;;
68010;SDS011;54794;48.348;7.878;2023-03-12T01:18:40;1.08;;;0.70;;
68010;SDS011;54794;48.348;7.878;2023-03-12T01:21:07;2.33;;;0.63;;
68010;SDS011;54794;48.348;7.878;2023-03-12T01:23:34;1.75;;;0.82;;
68010;SDS011;54794;48.348;7.878;2023-03-12T01:26:03;1.52;;;0.60;;
68010;SDS011;54794;48.348;7.878;2023-03-12T01:28:30;2.28;;;0.77;;
68010;SDS011;54794;48.348;7.878;2023-03-12T01:30:56;2.10;;;0.90;;
68010;SDS011;54794;48.348;7.878;2023-03-12T01:33:23;1.85;;;0.80;;
68010;SDS011;54794;48.348;7.878;2023-03-12T01:35:50;1.42;;;0.70;;
68010;SDS011;54794;48.348;7.878;2023-03-12T01:38:17;1.80;;;0.70;;
68010;SDS011;54794;48.348;7.878;2023-03-12T01:40:45;2.15;;;0.68;;
68010;SDS011;54794;48.348;7.878;2023-03-12T01:43:24;0.63;;;0.45;;
68010;SDS011;54794;48.348;7.878;2023-03-12T01:48:43;1.85;;;0.75;;
68010;SDS011;54794;48.348;7.878;2023-03-12T01:51:18;2.95;;;0.70;;
68010;SDS011;54794;48.348;7.878;2023-03-12T01:53:48;2.30;;;0.77;;
68010;SDS011;54794;48.348;7.878;2023-03-12T01:56:20;1.67;;;0.68;;
68010;SDS011;54794;48.348;7.878;2023-03-12T01:58:53;1.80;;;0.60;;
68010;SDS011;54794;48.348;7.878;2023-03-12T02:01:25;1.02;;;0.60;;
68010;SDS011;54794;48.348;7.878;2023-03-12T02:03:55;2.15;;;0.70;;
68010;SDS011;54794;48.348;7.878;2023-03-12T02:06:28;0.82;;;0.55;;
68010;SDS011;54794;48.348;7.878;2023-03-12T02:09:14;1.98;;;0.60;;
68010;SDS011;54794;48.348;7.878;2023-03-12T02:11:45;0.98;;;0.60;;
68010;SDS011;54794;48.348;7.878;2023-03-12T02:14:12;2.38;;;0.80;;
68010;SDS011;54794;48.348;7.878;2023-03-12T02:16:39;2.13;;;0.82;;
68010;SDS011;54794;48.348;7.878;2023-03-12T02:19:08;0.90;;;0.45;;
68010;SDS011;54794;48.348;7.878;2023-03-12T02:21:57;1.77;;;0.63;;
68010;SDS011;54794;48.348;7.878;2023-03-12T02:27:04;1.65;;;0.77;;
68010;SDS011;54794;48.348;7.878;2023-03-12T02:29:35;0.82;;;0.57;;
68010;SDS011;54794;48.348;7.878;2023-03-12T02:32:06;1.15;;;0.50;;
68010;SDS011;54794;48.348;7.878;2023-03-12T02:34:35;1.13;;;0.68;;
68010;SDS011;54794;48.348;7.878;2023-03-12T02:37:02;1.02;;;0.70;;
68010;SDS011;54794;48.348;7.878;2023-03-12T02:39:29;3.55;;;0.82;;
68010;SDS011;54794;48.348;7.878;2023-03-12T02:41:56;0.73;;;0.50;;
68010;SDS011;54794;48.348;7.878;2023-03-12T02:44:29;1.95;;;0.63;;
68010;SDS011;54794;48.348;7.878;2023-03-12T02:46:59;0.93;;;0.55;;
68010;SDS011;54794;48.348;7.878;2023-03-12T02:49:28;0.77;;;0.50;;
68010;SDS011;54794;48.348;7.878;2023-03-12T02:51:58;0.90;;;0.60;;
68010;SDS011;54794;48.348;7.878;2023-03-12T02:54:26;1.95;;;0.70;;
68010;SDS011;54794;48.348;7.878;2023-03-12T02:56:54;1.52;;;0.75;;
68010;SDS011;54794;48.348;7.878;2023-03-12T02:59:22;1.35;;;0.52;;
68010;SDS011;54794;48.348;7.878;2023-03-12T03:01:57;1.45;;;0.68;;
68010;SDS011;54794;48.348;7.878;2023-03-12T03:04:26;1.02;;;0.40;;
68010;SDS011;54794;48.348;7.878;2023-03-12T03:06:59;1.73;;;0.70;;
68010;SDS011;54794;48.348;7.878;2023-03-12T03:09:26;1.17;;;0.60;;
68010;SDS011;54794;48.348;7.878;2023-03-12T03:11:53;0.80;;;0.50;;
68010;SDS011;54794;48.348;7.878;2023-03-12T03:14:20;1.05;;;0.68;;
68010;SDS011;54794;48.348;7.878;2023-03-12T03:19:15;0.70;;;0.40;;
68010;SDS011;54794;48.348;7.878;2023-03-12T03:21:42;1.40;;;0.60;;
68010;SDS011;54794;48.348;7.878;2023-03-12T03:24:09;0.98;;;0.57;;
68010;SDS011;54794;48.348;7.878;2023-03-12T03:26:36;1.42;;;0.60;;
68010;SDS011;54794;48.348;7.878;2023-03-12T03:29:03;3.13;;;0.70;;
68010;SDS011;54794;48.348;7.878;2023-03-12T03:31:30;1.83;;;0.60;;
68010;SDS011;54794;48.348;7.878;2023-03-12T03:33:57;1.88;;;0.70;;
68010;SDS011;54794;48.348;7.878;2023-03-12T03:36:24;0.77;;;0.57;;
68010;SDS011;54794;48.348;7.878;2023-03-12T03:38:51;0.77;;;0.50;;
68010;SDS011;54794;48.348;7.878;2023-03-12T03:41:19;1.73;;;0.63;;
68010;SDS011;54794;48.348;7.878;2023-03-12T03:43:48;0.90;;;0.60;;
68010;SDS011;54794;48.348;7.878;2023-03-12T03:46:15;1.08;;;0.60;;
68010;SDS011;54794;48.348;7.878;2023-03-12T03:48:42;2.20;;;0.63;;
68010;SDS011;54794;48.348;7.878;2023-03-12T03:51:09;1.48;;;0.60;;
68010;SDS011;54794;48.348;7.878;2023-03-12T03:53:37;1.40;;;0.50;;
68010;SDS011;54794;48.348;7.878;2023-03-12T03:56:05;1.77;;;0.52;;
68010;SDS011;54794;48.348;7.878;2023-03-12T03:58:34;1.15;;;0.60;;
68010;SDS011;54794;48.348;7.878;2023-03-12T04:01:01;1.00;;;0.68;;
68010;SDS011;54794;48.348;7.878;2023-03-12T04:03:28;1.10;;;0.52;;
68010;SDS011;54794;48.348;7.878;2023-03-12T04:05:56;0.47;;;0.40;;
68010;SDS011;54794;48.348;7.878;2023-03-12T04:08:26;2.20;;;0.80;;
68010;SDS011;54794;48.348;7.878;2023-03-12T04:10:54;0.80;;;0.40;;
68010;SDS011;54794;48.348;7.878;2023-03-12T04:13:21;1.88;;;0.60;;
68010;SDS011;54794;48.348;7.878;2023-03-12T04:15:49;1.33;;;0.50;;
68010;SDS011;54794;48.348;7.878;2023-03-12T04:18:18;1.13;;;0.55;;
68010;SDS011;54794;48.348;7.878;2023-03-12T04:20:45;0.80;;;0.60;;
68010;SDS011;54794;48.348;7.878;2023-03-12T04:23:12;2.20;;;0.70;;
68010;SDS011;54794;48.348;7.878;2023-03-12T04:25:39;1.23;;;0.50;;
68010;SDS011;54794;48.348;7.878;2023-03-12T04:28:06;0.75;;;0.50;;
68010;SDS011;54794;48.348;7.878;2023-03-12T04:30:33;1.08;;;0.57;;
68010;SDS011;54794;48.348;7.878;2023-03-12T04:33:03;1.27;;;0.60;;
68010;SDS011;54794;48.348;7.878;2023-03-12T04:35:32;2.17;;;0.75;;
68010;SDS011;54794;48.348;7.878;2023-03-12T04:38:00;1.02;;;0.60;;
68010;SDS011;54794;48.348;7.878;2023-03-12T04:40:28;2.33;;;0.60;;
68010;SDS011;54794;48.348;7.878;2023-03-12T04:42:55;1.52;;;0.80;;
68010;SDS011;54794;48.348;7.878;2023-03-12T04:45:22;1.00;;;0.50;;
68010;SDS011;54794;48.348;7.878;2023-03-12T04:47:49;1.00;;;0.50;;
68010;SDS011;54794;48.348;7.878;2023-03-12T04:50:15;0.50;;;0.50;;
68010;SDS011;54794;48.348;7.878;2023-03-12T04:52:43;1.00;;;0.52;;
68010;SDS011;54794;48.348;7.878;2023-03-12T04:55:09;0.70;;;0.50;;
68010;SDS011;54794;48.348;7.878;2023-03-12T04:57:36;1.48;;;0.45;;
68010;SDS011;54794;48.348;7.878;2023-03-12T05:00:03;0.43;;;0.30;;
68010;SDS011;54794;48.348;7.878;2023-03-12T05:02:36;1.40;;;0.60;;
68010;SDS011;54794;48.348;7.878;2023-03-12T05:05:03;0.75;;;0.40;;
68010;SDS011;54794;48.348;7.878;2023-03-12T05:07:31;1.20;;;0.60;;
68010;SDS011;54794;48.348;7.878;2023-03-12T05:09:59;2.45;;;0.73;;
68010;SDS011;54794;48.348;7.878;2023-03-12T05:12:26;0.55;;;0.38;;
68010;SDS011;54794;48.348;7.878;2023-03-12T05:14:53;1.20;;;0.40;;
68010;SDS011;54794;48.348;7.878;2023-03-12T05:17:20;1.00;;;0.45;;
68010;SDS011;54794;48.348;7.878;2023-03-12T05:19:47;0.88;;;0.45;;
68010;SDS011;54794;48.348;7.878;2023-03-12T05:22:14;1.67;;;0.70;;
68010;SDS011;54794;48.348;7.878;2023-03-12T05:24:41;0.77;;;0.40;;
68010;SDS011;54794;48.348;7.878;2023-03-12T05:27:07;1.00;;;0.65;;
68010;SDS011;54794;48.348;7.878;2023-03-12T05:29:34;0.57;;;0.43;;
68010;SDS011;54794;48.348;7.878;2023-03-12T05:32:01;1.17;;;0.60;;
68010;SDS011;54794;48.348;7.878;2023-03-12T05:36:56;0.82;;;0.40;;
68010;SDS011;54794;48.348;7.878;2023-03-12T05:39:24;0.60;;;0.43;;
68010;SDS011;54794;48.348;7.878;2023-03-12T05:41:52;1.73;;;0.60;;
68010;SDS011;54794;48.348;7.878;2023-03-12T05:44:23;1.00;;;0.50;;
68010;SDS011;54794;48.348;7.878;2023-03-12T05:46:50;0.77;;;0.50;;
68010;SDS011;54794;48.348;7.878;2023-03-12T05:49:18;1.02;;;0.60;;
68010;SDS011;54794;48.348;7.878;2023-03-12T05:51:47;0.90;;;0.50;;
68010;SDS011;54794;48.348;7.878;2023-03-12T05:54:15;0.75;;;0.50;;
68010;SDS011;54794;48.348;7.878;2023-03-12T05:59:09;2.10;;;0.60;;
68010;SDS011;54794;48.348;7.878;2023-03-12T06:01:36;0.85;;;0.55;;
68010;SDS011;54794;48.348;7.878;2023-03-12T06:04:04;1.10;;;0.70;;
68010;SDS011;54794;48.348;7.878;2023-03-12T06:06:32;1.20;;;0.70;;
68010;SDS011;54794;48.348;7.878;2023-03-12T06:09:02;2.22;;;0.77;;
68010;SDS011;54794;48.348;7.878;2023-03-12T06:11:32;2.28;;;1.10;;
68010;SDS011;54794;48.348;7.878;2023-03-12T06:14:00;1.70;;;0.85;;
68010;SDS011;54794;48.348;7.878;2023-03-12T06:16:27;1.67;;;0.82;;
68010;SDS011;54794;48.348;7.878;2023-03-12T06:18:56;1.52;;;0.90;;
68010;SDS011;54794;48.348;7.878;2023-03-12T06:21:27;1.77;;;0.90;;
68010;SDS011;54794;48.348;7.878;2023-03-12T06:24:00;1.65;;;0.90;;
68010;SDS011;54794;48.348;7.878;2023-03-12T06:28:55;1.55;;;1.20;;
68010;SDS011;54794;48.348;7.878;2023-03-12T06:31:22;0.93;;;0.85;;
68010;SDS011;54794;48.348;7.878;2023-03-12T06:33:50;2.10;;;1.08;;
68010;SDS011;54794;48.348;7.878;2023-03-12T06:36:18;1.90;;;1.13;;
68010;SDS011;54794;48.348;7.878;2023-03-12T06:38:48;2.15;;;1.25;;
68010;SDS011;54794;48.348;7.878;2023-03-12T06:41:16;1.33;;;1.00;;
68010;SDS011;54794;48.348;7.878;2023-03-12T06:43:45;2.58;;;1.15;;
68010;SDS011;54794;48.348;7.878;2023-03-12T06:46:14;2.65;;;1.10;;
68010;SDS011;54794;48.348;7.878;2023-03-12T06:48:44;1.25;;;0.80;;
68010;SDS011;54794;48.348;7.878;2023-03-12T06:51:12;1.85;;;1.45;;
68010;SDS011;54794;48.348;7.878;2023-03-12T06:53:41;2.35;;;1.48;;
68010;SDS011;54794;48.348;7.878;2023-03-12T06:56:09;2.65;;;1.48;;
68010;SDS011;54794;48.348;7.878;2023-03-12T06:58:36;1.58;;;1.02;;
68010;SDS011;54794;48.348;7.878;2023-03-12T07:01:03;2.05;;;1.40;;
68010;SDS011;54794;48.348;7.878;2023-03-12T07:03:31;1.80;;;1.20;;
68010;SDS011;54794;48.348;7.878;2023-03-12T07:05:58;1.33;;;0.95;;
68010;SDS011;54794;48.348;7.878;2023-03-12T07:08:25;1.05;;;0.85;;
68010;SDS011;54794;48.348;7.878;2023-03-12T07:10:57;1.83;;;0.93;;
68010;SDS011;54794;48.348;7.878;2023-03-12T07:13:27;1.80;;;0.95;;
68010;SDS011;54794;48.348;7.878;2023-03-12T07:15:54;1.70;;;1.00;;
68010;SDS011;54794;48.348;7.878;2023-03-12T07:18:22;1.65;;;1.02;;
68010;SDS011;54794;48.348;7.878;2023-03-12T07:20:50;1.83;;;1.23;;
68010;SDS011;54794;48.348;7.878;2023-03-12T07:23:17;1.65;;;0.98;;
68010;SDS011;54794;48.348;7.878;2023-03-12T07:25:45;1.45;;;0.95;;
68010;SDS011;54794;48.348;7.878;2023-03-12T07:28:13;1.65;;;1.05;;
68010;SDS011;54794;48.348;7.878;2023-03-12T07:30:42;1.33;;;0.98;;
68010;SDS011;54794;48.348;7.878;2023-03-12T07:33:16;1.00;;;0.77;;
68010;SDS011;54794;48.348;7.878;2023-03-12T07:35:46;1.15;;;0.75;;
68010;SDS011;54794;48.348;7.878;2023-03-12T07:38:17;1.40;;;0.70;;
68010;SDS011;54794;48.348;7.878;2023-03-12T07:40:44;1.30;;;0.93;;
68010;SDS011;54794;48.348;7.878;2023-03-12T07:43:16;0.98;;;0.63;;
68010;SDS011;54794;48.348;7.878;2023-03-12T07:45:46;0.80;;;0.65;;
68010;SDS011;54794;48.348;7.878;2023-03-12T07:48:14;1.30;;;0.70;;
68010;SDS011;54794;48.348;7.878;2023-03-12T07:53:09;0.82;;;0.60;;
68010;SDS011;54794;48.348;7.878;2023-03-12T07:55:36;1.02;;;0.50;;
68010;SDS011;54794;48.348;7.878;2023-03-12T07:58:03;0.73;;;0.63;;
68010;SDS011;54794;48.348;7.878;2023-03-12T08:00:31;1.00;;;0.70;;
68010;SDS011;54794;48.348;7.878;2023-03-12T08:02:58;1.20;;;0.80;;
68010;SDS011;54794;48.348;7.878;2023-03-12T08:05:25;0.95;;;0.60;;
68010;SDS011;54794;48.348;7.878;2023-03-12T08:07:52;0.90;;;0.60;;
68010;SDS011;54794;48.348;7.878;2023-03-12T08:10:29;1.30;;;0.68;;
68010;SDS011;54794;48.348;7.878;2023-03-12T08:13:14;1.65;;;0.70;;
68010;SDS011;54794;48.348;7.878;2023-03-12T08:16:01;1.52;;;0.98;;
68010;SDS011;54794;48.348;7.878;2023-03-12T08:18:48;1.25;;;0.70;;
68010;SDS011;54794;48.348;7.878;2023-03-12T08:21:55;1.10;;;0.60;;
68010;SDS011;54794;48.348;7.878;2023-03-12T08:24:34;1.08;;;0.63;;
68010;SDS011;54794;48.348;7.878;2023-03-12T08:27:27;1.08;;;0.68;;
68010;SDS011;54794;48.348;7.878;2023-03-12T08:30:24;1.17;;;0.57;;
68010;SDS011;54794;48.348;7.878;2023-03-12T08:33:41;0.77;;;0.50;;
68010;SDS011;54794;48.348;7.878;2023-03-12T08:36:48;0.63;;;0.43;;
68010;SDS011;54794;48.348;7.878;2023-03-12T08:39:44;1.05;;;0.70;;
68010;SDS011;54794;48.348;7.878;2023-03-12T08:45:24;2.95;;;0.45;;
68010;SDS011;54794;48.348;7.878;2023-03-12T08:48:27;0.77;;;0.52;;
68010;SDS011;54794;48.348;7.878;2023-03-12T08:51:18;0.88;;;0.50;;
68010;SDS011;54794;48.348;7.878;2023-03-12T08:54:13;1.05;;;0.70;;
68010;SDS011;54794;48.348;7.878;2023-03-12T08:56:58;1.33;;;0.60;;
68010;SDS011;54794;48.348;7.878;2023-03-12T08:59:44;0.95;;;0.57;;
68010;SDS011;54794;48.348;7.878;2023-03-12T09:02:14;0.70;;;0.57;;
68010;SDS011;54794;48.348;7.878;2023-03-12T09:04:54;1.13;;;0.63;;
68010;SDS011;54794;48.348;7.878;2023-03-12T09:07:35;0.85;;;0.50;;
68010;SDS011;54794;48.348;7.878;2023-03-12T09:10:09;0.98;;;0.57;;
68010;SDS011;54794;48.348;7.878;2023-03-12T09:13:13;1.10;;;0.70;;
68010;SDS011;54794;48.348;7.878;2023-03-12T09:16:09;1.00;;;0.60;;
68010;SDS011;54794;48.348;7.878;2023-03-12T09:19:20;1.00;;;0.60;;
68010;SDS011;54794;48.348;7.878;2023-03-12T09:22:14;0.80;;;0.60;;
68010;SDS011;54794;48.348;7.878;2023-03-12T09:24:53;2.17;;;0.82;;
68010;SDS011;54794;48.348;7.878;2023-03-12T09:30:15;1.95;;;0.68;;
68010;SDS011;54794;48.348;7.878;2023-03-12T09:32:45;0.98;;;0.57;;
68010;SDS011;54794;48.348;7.878;2023-03-12T09:35:13;1.15;;;0.70;;
68010;SDS011;54794;48.348;7.878;2023-03-12T09:37:41;1.40;;;0.90;;
68010;SDS011;54794;48.348;7.878;2023-03-12T09:40:15;0.90;;;0.60;;
68010;SDS011;54794;48.348;7.878;2023-03-12T09:42:51;0.88;;;0.60;;
68010;SDS011;54794;48.348;7.878;2023-03-12T09:45:29;1.38;;;0.70;;
68010;SDS011;54794;48.348;7.878;2023-03-12T09:48:13;0.70;;;0.60;;
68010;SDS011;54794;48.348;7.878;2023-03-12T09:50:59;1.27;;;0.80;;
68010;SDS011;54794;48.348;7.878;2023-03-12T09:53:39;1.30;;;0.63;;
68010;SDS011;54794;48.348;7.878;2023-03-12T09:56:16;0.65;;;0.47;;
68010;SDS011;54794;48.348;7.878;2023-03-12T09:58:47;1.30;;;0.70;;
68010;SDS011;54794;48.348;7.878;2023-03-12T10:06:57;1.10;;;0.60;;
68010;SDS011;54794;48.348;7.878;2023-03-12T10:13:08;1.60;;;0.65;;
68010;SDS011;54794;48.348;7.878;2023-03-12T10:25:06;1.35;;;0.60;;
68010;SDS011;54794;48.348;7.878;2023-03-12T10:27:47;0.93;;;0.40;;
68010;SDS011;54794;48.348;7.878;2023-03-12T10:30:17;1.35;;;0.40;;
68010;SDS011;54794;48.348;7.878;2023-03-12T10:32:50;2.65;;;0.60;;
68010;SDS011;54794;48.348;7.878;2023-03-12T10:35:26;1.63;;;0.40;;
68010;SDS011;54794;48.348;7.878;2023-03-12T10:38:01;2.33;;;0.90;;
68010;SDS011;54794;48.348;7.878;2023-03-12T10:40:31;1.30;;;0.50;;
68010;SDS011;54794;48.348;7.878;2023-03-12T10:43:02;1.45;;;0.45;;
68010;SDS011;54794;48.348;7.878;2023-03-12T10:48:02;0.95;;;0.47;;
68010;SDS011;54794;48.348;7.878;2023-03-12T10:50:35;1.48;;;0.70;;
68010;SDS011;54794;48.348;7.878;2023-03-12T10:53:12;1.98;;;0.60;;
68010;SDS011;54794;48.348;7.878;2023-03-12T10:55:39;1.50;;;0.63;;
68010;SDS011;54794;48.348;7.878;2023-03-12T10:58:10;0.75;;;0.50;;
68010;SDS011;54794;48.348;7.878;2023-03-12T11:00:56;2.17;;;0.70;;
68010;SDS011;54794;48.348;7.878;2023-03-12T11:03:26;1.13;;;0.50;;
68010;SDS011;54794;48.348;7.878;2023-03-12T11:08:29;1.23;;;0.60;;
68010;SDS011;54794;48.348;7.878;2023-03-12T11:11:01;1.48;;;0.55;;
68010;SDS011;54794;48.348;7.878;2023-03-12T11:21:26;1.38;;;0.45;;
68010;SDS011;54794;48.348;7.878;2023-03-12T11:26:23;1.30;;;0.60;;
68010;SDS011;54794;48.348;7.878;2023-03-12T11:29:21;1.38;;;0.40;;
68010;SDS011;54794;48.348;7.878;2023-03-12T11:32:42;2.00;;;0.70;;
68010;SDS011;54794;48.348;7.878;2023-03-12T11:34:55;2.08;;;0.50;;
68010;SDS011;54794;48.348;7.878;2023-03-12T12:01:11;3.47;;;0.55;;
68010;SDS011;54794;48.348;7.878;2023-03-12T12:12:16;2.33;;;0.50;;
68010;SDS011;54794;48.348;7.878;2023-03-12T12:17:51;3.35;;;0.52;;
68010;SDS011;54794;48.348;7.878;2023-03-12T12:21:30;5.68;;;1.00;;
68010;SDS011;54794;48.348;7.878;2023-03-12T12:27:42;2.42;;;0.82;;
68010;SDS011;54794;48.348;7.878;2023-03-12T12:36:42;1.88;;;0.52;;
68010;SDS011;54794;48.348;7.878;2023-03-12T12:39:33;1.30;;;0.40;;
68010;SDS011;54794;48.348;7.878;2023-03-12T12:42:09;3.65;;;0.40;;
68010;SDS011;54794;48.348;7.878;2023-03-12T12:44:47;0.80;;;0.30;;
68010;SDS011;54794;48.348;7.878;2023-03-12T12:47:21;1.13;;;0.30;;
68010;SDS011;54794;48.348;7.878;2023-03-12T12:50:02;1.70;;;0.40;;
68010;SDS011;54794;48.348;7.878;2023-03-12T12:52:30;2.28;;;0.57;;
68010;SDS011;54794;48.348;7.878;2023-03-12T12:57:54;3.63;;;0.52;;
68010;SDS011;54794;48.348;7.878;2023-03-12T13:03:13;2.63;;;0.40;;
68010;SDS011;54794;48.348;7.878;2023-03-12T13:05:47;1.23;;;0.40;;
68010;SDS011;54794;48.348;7.878;2023-03-12T13:08:35;1.27;;;0.40;;
68010;SDS011;54794;48.348;7.878;2023-03-12T13:11:21;1.90;;;0.40;;
68010;SDS011;54794;48.348;7.878;2023-03-12T13:16:33;1.77;;;0.40;;
68010;SDS011;54794;48.348;7.878;2023-03-12T13:24:43;2.83;;;0.40;;
68010;SDS011;54794;48.348;7.878;2023-03-12T13:35:30;2.60;;;0.70;;
68010;SDS011;54794;48.348;7.878;2023-03-12T13:38:09;2.70;;;0.60;;
68010;SDS011;54794;48.348;7.878;2023-03-12T13:40:53;1.77;;;0.43;;
68010;SDS011;54794;48.348;7.878;2023-03-12T13:43:32;2.10;;;0.60;;
68010;SDS011;54794;48.348;7.878;2023-03-12T13:48:44;2.10;;;0.68;;
68010;SDS011;54794;48.348;7.878;2023-03-12T13:51:15;1.08;;;0.57;;
68010;SDS011;54794;48.348;7.878;2023-03-12T13:53:52;2.22;;;0.60;;
68010;SDS011;54794;48.348;7.878;2023-03-12T13:56:27;3.05;;;0.52;;
68010;SDS011;54794;48.348;7.878;2023-03-12T13:58:58;0.65;;;0.40;;
68010;SDS011;54794;48.348;7.878;2023-03-12T14:01:36;2.38;;;0.43;;
68010;SDS011;54794;48.348;7.878;2023-03-12T14:04:13;2.65;;;0.60;;
68010;SDS011;54794;48.348;7.878;2023-03-12T14:09:33;2.13;;;0.80;;
68010;SDS011;54794;48.348;7.878;2023-03-12T14:14:56;1.45;;;0.50;;
68010;SDS011;54794;48.348;7.878;2023-03-12T14:17:36;1.55;;;0.40;;
68010;SDS011;54794;48.348;7.878;2023-03-12T14:20:10;2.60;;;0.73;;
68010;SDS011;54794;48.348;7.878;2023-03-12T14:22:50;1.88;;;0.63;;
68010;SDS011;54794;48.348;7.878;2023-03-12T14:25:42;2.55;;;0.90;;
68010;SDS011;54794;48.348;7.878;2023-03-12T14:28:17;1.50;;;0.60;;
68010;SDS011;54794;48.348;7.878;2023-03-12T14:31:01;1.52;;;0.65;;
68010;SDS011;54794;48.348;7.878;2023-03-12T14:36:20;2.13;;;0.55;;
68010;SDS011;54794;48.348;7.878;2023-03-12T14:38:57;2.53;;;0.65;;
68010;SDS011;54794;48.348;7.878;2023-03-12T14:41:37;1.77;;;0.68;;
68010;SDS011;54794;48.348;7.878;2023-03-12T14:44:24;1.40;;;0.50;;
68010;SDS011;54794;48.348;7.878;2023-03-12T14:46:54;2.25;;;0.63;;
68010;SDS011;54794;48.348;7.878;2023-03-12T14:49:37;3.72;;;0.85;;
68010;SDS011;54794;48.348;7.878;2023-03-12T14:52:11;2.33;;;0.82;;
68010;SDS011;54794;48.348;7.878;2023-03-12T14:54:52;3.72;;;0.60;;
68010;SDS011;54794;48.348;7.878;2023-03-12T14:57:25;2.72;;;0.70;;
68010;SDS011;54794;48.348;7.878;2023-03-12T15:02:25;5.20;;;1.10;;
68010;SDS011;54794;48.348;7.878;2023-03-12T15:04:57;3.58;;;0.80;;
68010;SDS011;54794;48.348;7.878;2023-03-12T15:07:28;3.92;;;0.70;;
68010;SDS011;54794;48.348;7.878;2023-03-12T15:12:43;2.83;;;0.70;;
68010;SDS011;54794;48.348;7.878;2023-03-12T15:15:26;7.18;;;0.82;;
68010;SDS011;54794;48.348;7.878;2023-03-12T15:18:05;3.28;;;0.95;;
68010;SDS011;54794;48.348;7.878;2023-03-12T15:20:39;4.00;;;0.85;;
68010;SDS011;54794;48.348;7.878;2023-03-12T15:25:37;2.78;;;0.80;;
68010;SDS011;54794;48.348;7.878;2023-03-12T15:34:13;1.55;;;0.63;;
68010;SDS011;54794;48.348;7.878;2023-03-12T15:37:01;2.40;;;0.68;;
68010;SDS011;54794;48.348;7.878;2023-03-12T15:39:46;2.35;;;0.90;;
68010;SDS011;54794;48.348;7.878;2023-03-12T15:42:22;2.72;;;0.77;;
68010;SDS011;54794;48.348;7.878;2023-03-12T15:44:53;2.30;;;0.70;;
68010;SDS011;54794;48.348;7.878;2023-03-12T15:47:28;1.63;;;0.50;;
68010;SDS011;54794;48.348;7.878;2023-03-12T15:50:00;3.33;;;0.80;;
68010;SDS011;54794;48.348;7.878;2023-03-12T15:52:38;2.40;;;0.70;;
68010;SDS011;54794;48.348;7.878;2023-03-12T15:57:46;3.22;;;0.52;;
68010;SDS011;54794;48.348;7.878;2023-03-12T16:05:25;4.60;;;0.90;;
68010;SDS011;54794;48.348;7.878;2023-03-12T16:10:46;2.53;;;0.70;;
68010;SDS011;54794;48.348;7.878;2023-03-12T16:13:16;2.70;;;0.65;;
68010;SDS011;54794;48.348;7.878;2023-03-12T16:15:47;2.38;;;0.90;;
68010;SDS011;54794;48.348;7.878;2023-03-12T16:18:15;3.30;;;0.60;;
68010;SDS011;54794;48.348;7.878;2023-03-12T16:20:47;1.88;;;0.50;;
68010;SDS011;54794;48.348;7.878;2023-03-12T16:23:16;2.42;;;0.77;;
68010;SDS011;54794;48.348;7.878;2023-03-12T16:25:45;2.25;;;1.10;;
68010;SDS011;54794;48.348;7.878;2023-03-12T16:28:18;2.55;;;0.80;;
68010;SDS011;54794;48.348;7.878;2023-03-12T16:30:47;2.42;;;0.77;;
68010;SDS011;54794;48.348;7.878;2023-03-12T16:35:44;3.72;;;0.80;;
68010;SDS011;54794;48.348;7.878;2023-03-12T16:38:12;2.35;;;0.80;;
68010;SDS011;54794;48.348;7.878;2023-03-12T16:40:41;2.28;;;0.90;;
68010;SDS011;54794;48.348;7.878;2023-03-12T16:43:32;3.25;;;0.90;;
68010;SDS011;54794;48.348;7.878;2023-03-12T16:46:02;3.20;;;0.77;;
68010;SDS011;54794;48.348;7.878;2023-03-12T16:48:34;1.50;;;0.68;;
68010;SDS011;54794;48.348;7.878;2023-03-12T16:51:02;3.22;;;0.93;;
68010;SDS011;54794;48.348;7.878;2023-03-12T16:53:29;1.92;;;0.65;;
68010;SDS011;54794;48.348;7.878;2023-03-12T16:55:57;3.40;;;0.65;;
68010;SDS011;54794;48.348;7.878;2023-03-12T16:58:27;4.15;;;0.90;;
68010;SDS011;54794;48.348;7.878;2023-03-12T17:00:55;3.97;;;1.33;;
68010;SDS011;54794;48.348;7.878;2023-03-12T17:03:34;1.90;;;0.80;;
68010;SDS011;54794;48.348;7.878;2023-03-12T17:06:04;3.47;;;0.88;;
68010;SDS011;54794;48.348;7.878;2023-03-12T17:08:33;2.25;;;0.77;;
68010;SDS011;54794;48.348;7.878;2023-03-12T17:11:01;3.13;;;0.90;;
68010;SDS011;54794;48.348;7.878;2023-03-12T17:13:29;3.17;;;0.90;;
68010;SDS011;54794;48.348;7.878;2023-03-12T17:15:56;2.70;;;0.88;;
68010;SDS011;54794;48.348;7.878;2023-03-12T17:18:24;3.40;;;0.80;;
68010;SDS011;54794;48.348;7.878;2023-03-12T17:20:50;3.22;;;0.98;;
68010;SDS011;54794;48.348;7.878;2023-03-12T17:23:18;1.80;;;0.80;;
68010;SDS011;54794;48.348;7.878;2023-03-12T17:25:45;2.80;;;0.90;;
68010;SDS011;54794;48.348;7.878;2023-03-12T17:28:13;1.42;;;0.57;;
68010;SDS011;54794;48.348;7.878;2023-03-12T17:30:41;3.50;;;0.70;;
68010;SDS011;54794;48.348;7.878;2023-03-12T17:33:13;5.15;;;0.80;;
68010;SDS011;54794;48.348;7.878;2023-03-12T17:35:42;3.88;;;0.80;;
68010;SDS011;54794;48.348;7.878;2023-03-12T17:38:10;2.30;;;0.77;;
68010;SDS011;54794;48.348;7.878;2023-03-12T17:40:39;2.72;;;0.65;;
68010;SDS011;54794;48.348;7.878;2023-03-12T17:43:10;3.53;;;0.82;;
68010;SDS011;54794;48.348;7.878;2023-03-12T17:45:38;2.10;;;0.82;;
68010;SDS011;54794;48.348;7.878;2023-03-12T17:48:05;2.22;;;0.50;;
68010;SDS011;54794;48.348;7.878;2023-03-12T17:50:32;3.35;;;0.73;;
68010;SDS011;54794;48.348;7.878;2023-03-12T17:52:59;3.38;;;0.90;;
68010;SDS011;54794;48.348;7.878;2023-03-12T17:55:27;2.65;;;1.05;;
68010;SDS011;54794;48.348;7.878;2023-03-12T17:57:54;1.95;;;0.75;;
68010;SDS011;54794;48.348;7.878;2023-03-12T18:00:22;2.78;;;0.70;;